createdAt,value
2022-08-11T00:02:34.509Z,9.25
2022-08-11T00:05:17.441Z,8.00
2022-08-11T00:07:47.527Z,8.00
2022-08-11T00:10:22.202Z,9.50
2022-08-11T00:12:56.804Z,9.25
2022-08-11T00:15:26.680Z,8.00
2022-08-11T00:18:03.133Z,8.00
2022-08-11T00:20:36.541Z,9.00
2022-08-11T00:23:18.272Z,7.25
2022-08-11T00:25:49.031Z,9.50
2022-08-11T00:28:34.768Z,9.00
2022-08-11T00:31:07.601Z,8.50
2022-08-11T00:33:45.454Z,8.00
2022-08-11T00:36:16.203Z,7.75
2022-08-11T00:38:45.571Z,7.00
2022-08-11T00:41:15.079Z,8.00
2022-08-11T00:43:57.130Z,9.00
2022-08-11T00:46:26.334Z,9.50
2022-08-11T00:49:17.827Z,8.75
2022-08-11T00:52:05.335Z,8.75
2022-08-11T00:54:33.208Z,10.50
2022-08-11T00:57:38.574Z,8.50
2022-08-11T01:00:23.588Z,9.25
2022-08-11T01:03:18.334Z,11.00
2022-08-11T01:06:01.865Z,8.75
2022-08-11T01:09:10.435Z,10.00
2022-08-11T01:12:16.404Z,10.25
2022-08-11T01:15:20.401Z,8.00
2022-08-11T01:18:05.284Z,9.00
2022-08-11T01:20:47.732Z,11.00
2022-08-11T01:23:46.372Z,8.25
2022-08-11T01:26:19.023Z,10.25
2022-08-11T01:29:10.314Z,9.00
2022-08-11T01:32:03.628Z,9.25
2022-08-11T01:35:05.585Z,8.00
2022-08-11T01:37:53.568Z,9.00
2022-08-11T01:40:25.862Z,8.50
2022-08-11T01:43:43.290Z,9.00
2022-08-11T01:46:21.355Z,11.00
2022-08-11T01:50:08.445Z,10.50
2022-08-11T01:52:30.165Z,11.00
2022-08-11T01:55:28.133Z,11.00
2022-08-11T01:58:08.847Z,10.25
2022-08-11T02:00:54.392Z,10.75
2022-08-11T02:03:36.647Z,10.00
2022-08-11T02:06:30.635Z,9.75
2022-08-11T02:09:25.821Z,8.50
2022-08-11T02:11:59.601Z,9.50
2022-08-11T02:15:04.377Z,13.50
2022-08-11T02:18:52.648Z,12.75
2022-08-11T02:21:48.270Z,13.50
2022-08-11T02:24:23.766Z,12.00
2022-08-11T02:27:04.990Z,11.50
2022-08-11T02:29:43.093Z,11.25
2022-08-11T02:32:33.694Z,12.50
2022-08-11T02:35:22.324Z,13.50
2022-08-11T02:37:51.991Z,13.50
2022-08-11T02:40:47.845Z,13.50
2022-08-11T02:43:27.635Z,12.50
2022-08-11T02:46:20.310Z,13.25
2022-08-11T02:49:23.568Z,10.75
2022-08-11T02:52:05.242Z,14.50
2022-08-11T02:54:59.606Z,10.50
2022-08-11T02:57:44.833Z,14.25
2022-08-11T03:00:17.533Z,13.00
2022-08-11T03:02:59.276Z,12.50
2022-08-11T03:05:45.196Z,13.75
2022-08-11T03:08:18.731Z,14.00
2022-08-11T03:11:20.651Z,15.00
2022-08-11T03:14:30.317Z,13.25
2022-08-11T03:17:05.600Z,13.25
2022-08-11T03:19:44.129Z,12.25
2022-08-11T03:22:14.468Z,13.50
2022-08-11T03:25:08.828Z,14.75
2022-08-11T03:27:47.694Z,15.25
2022-08-11T03:30:32.563Z,14.25
2022-08-11T03:33:36.014Z,13.25
2022-08-11T03:36:27.381Z,11.25
2022-08-11T03:39:13.421Z,16.00
2022-08-11T03:42:04.200Z,17.25
2022-08-11T03:45:00.076Z,13.00
2022-08-11T03:47:41.845Z,15.75
2022-08-11T03:50:55.166Z,14.75
2022-08-11T03:54:00.028Z,17.75
2022-08-11T03:56:41.532Z,16.75
2022-08-11T03:59:28.859Z,17.00
2022-08-11T04:02:01.618Z,16.25
2022-08-11T04:04:59.137Z,18.25
2022-08-11T04:07:55.056Z,18.25
2022-08-11T04:10:27.322Z,17.50
2022-08-11T04:13:22.933Z,15.25
2022-08-11T04:16:15.808Z,17.50
2022-08-11T04:19:21.666Z,15.50
2022-08-11T04:22:03.453Z,17.25
2022-08-11T04:24:59.257Z,16.75
2022-08-11T04:27:53.547Z,18.00
2022-08-11T04:30:41.396Z,15.25
2022-08-11T04:33:29.865Z,16.75
2022-08-11T04:37:16.002Z,17.75
2022-08-11T04:40:00.910Z,16.00
2022-08-11T04:43:23.149Z,14.00
2022-08-11T04:46:07.709Z,15.25
2022-08-11T04:49:26.336Z,15.50
2022-08-11T04:52:44.559Z,15.75
2022-08-11T04:55:38.689Z,13.75
2022-08-11T04:58:41.081Z,13.25
2022-08-11T05:01:44.172Z,17.00
2022-08-11T05:04:53.112Z,17.00
2022-08-11T05:07:28.672Z,16.75
2022-08-11T05:10:22.484Z,14.50
2022-08-11T05:13:28.022Z,14.25
2022-08-11T05:16:16.073Z,13.75
2022-08-11T05:19:16.108Z,14.25
2022-08-11T05:22:06.932Z,14.25
2022-08-11T05:25:00.964Z,15.75
2022-08-11T05:27:57.222Z,17.50
2022-08-11T05:30:47.960Z,15.00
2022-08-11T05:33:42.982Z,13.50
2022-08-11T05:36:18.201Z,12.75
2022-08-11T05:39:15.419Z,14.75
2022-08-11T05:42:01.379Z,16.00
2022-08-11T05:44:48.857Z,13.50
2022-08-11T05:47:45.407Z,13.00
2022-08-11T05:50:33.517Z,15.00
2022-08-11T05:53:21.336Z,15.00
2022-08-11T05:56:09.307Z,15.25
2022-08-11T05:58:42.688Z,14.00
2022-08-11T06:01:12.060Z,15.00
2022-08-11T06:03:59.052Z,15.25
2022-08-11T06:06:28.126Z,15.75
2022-08-11T06:08:58.724Z,14.50
2022-08-11T06:11:43.142Z,15.25
2022-08-11T06:14:12.919Z,16.00
2022-08-11T06:16:42.027Z,15.00
2022-08-11T06:19:10.023Z,13.75
2022-08-11T06:21:38.043Z,16.25
2022-08-11T06:24:11.824Z,16.00
2022-08-11T06:27:01.662Z,16.50
2022-08-11T06:29:38.163Z,17.75
2022-08-11T06:32:14.403Z,14.00
2022-08-11T06:35:09.960Z,16.25
2022-08-11T06:37:59.191Z,16.75
2022-08-11T06:41:15.224Z,16.25
2022-08-11T06:44:13.338Z,14.00
2022-08-11T06:46:51.558Z,14.75
2022-08-11T06:49:41.141Z,15.75
2022-08-11T06:52:35.815Z,16.50
2022-08-11T06:55:06.663Z,15.75
2022-08-11T06:57:57.780Z,14.25
2022-08-11T07:00:29.038Z,15.00
2022-08-11T07:03:11.659Z,17.00
2022-08-11T07:05:44.870Z,14.50
2022-08-11T07:08:59.567Z,14.00
2022-08-11T07:11:53.916Z,14.25
2022-08-11T07:14:43.921Z,15.50
2022-08-11T07:17:17.463Z,14.75
2022-08-11T07:20:09.243Z,14.50
2022-08-11T07:23:05.848Z,16.50
2022-08-11T07:25:54.944Z,14.75
2022-08-11T07:28:43.975Z,17.75
2022-08-11T07:32:03.595Z,14.50
2022-08-11T07:34:40.321Z,18.75
2022-08-11T07:37:16.291Z,17.25
2022-08-11T07:39:44.733Z,14.50
2022-08-11T07:42:15.598Z,12.75
2022-08-11T07:45:01.787Z,13.75
2022-08-11T07:47:48.404Z,15.00
2022-08-11T07:50:34.194Z,14.75
2022-08-11T07:53:02.802Z,15.00
2022-08-11T07:55:50.919Z,17.75
2022-08-11T07:58:45.545Z,15.50
2022-08-11T08:01:41.069Z,15.25
2022-08-11T08:04:28.758Z,16.50
2022-08-11T08:07:15.244Z,15.25
2022-08-11T08:10:01.631Z,15.25
2022-08-11T08:12:48.190Z,15.00
2022-08-11T08:15:34.775Z,16.75
2022-08-11T08:18:09.190Z,15.25
2022-08-11T08:20:51.781Z,9.50
2022-08-11T08:23:41.043Z,15.50
2022-08-11T08:26:30.612Z,12.75
2022-08-11T08:29:20.834Z,14.00
2022-08-11T08:31:48.918Z,15.00
2022-08-11T08:34:16.993Z,15.50
2022-08-11T08:36:45.893Z,14.00
2022-08-11T08:39:14.203Z,17.00
2022-08-11T08:41:43.274Z,16.50
2022-08-11T08:44:37.273Z,15.00
2022-08-11T08:47:01.001Z,16.00
2022-08-11T08:49:33.988Z,14.50
2022-08-11T08:52:26.476Z,14.25
2022-08-11T08:54:57.085Z,17.25
2022-08-11T08:57:28.018Z,14.25
2022-08-11T08:59:55.339Z,14.50
2022-08-11T09:02:34.543Z,16.00
2022-08-11T09:05:04.650Z,17.00
2022-08-11T09:07:38.256Z,15.00
2022-08-11T09:10:08.534Z,15.00
2022-08-11T09:12:38.676Z,16.00
2022-08-11T09:15:08.131Z,13.25
2022-08-11T09:17:37.533Z,14.50
2022-08-11T09:20:26.695Z,14.25
2022-08-11T09:24:06.852Z,15.75
2022-08-11T09:26:22.731Z,15.25
2022-08-11T09:28:59.406Z,13.00
2022-08-11T09:31:27.067Z,14.25
2022-08-11T09:33:55.559Z,15.50
2022-08-11T09:36:41.379Z,16.00
2022-08-11T09:39:26.942Z,15.00
2022-08-11T09:42:01.672Z,14.50
2022-08-11T09:44:50.380Z,14.75
2022-08-11T09:47:30.441Z,14.00
2022-08-11T09:50:00.701Z,11.75
2022-08-11T09:52:48.279Z,16.50
2022-08-11T09:55:27.114Z,15.00
2022-08-11T09:58:12.469Z,16.00
2022-08-11T10:01:02.660Z,15.75
2022-08-11T10:03:32.181Z,17.50
2022-08-11T10:06:19.784Z,14.00
2022-08-11T10:09:00.627Z,13.75
2022-08-11T10:11:28.584Z,16.00
2022-08-11T10:14:33.836Z,12.50
2022-08-11T10:17:06.927Z,13.75
2022-08-11T10:19:36.627Z,11.00
2022-08-11T10:22:44.369Z,14.00
2022-08-11T10:25:30.317Z,12.75
2022-08-11T10:28:28.776Z,13.50
2022-08-11T10:31:06.818Z,15.00
2022-08-11T10:33:59.653Z,14.25
2022-08-11T10:36:35.550Z,14.00
2022-08-11T10:39:05.265Z,14.25
2022-08-11T10:42:02.826Z,15.50
2022-08-11T10:44:45.753Z,14.75
2022-08-11T10:47:33.407Z,14.75
2022-08-11T10:50:20.355Z,13.50
2022-08-11T10:53:08.324Z,15.00
2022-08-11T10:55:58.587Z,12.75
2022-08-11T10:58:44.861Z,14.50
2022-08-11T11:01:13.148Z,13.25
2022-08-11T11:03:40.971Z,13.50
2022-08-11T11:06:30.025Z,14.75
2022-08-11T11:09:04.552Z,12.00
2022-08-11T11:11:55.871Z,11.50
2022-08-11T11:14:49.173Z,12.00
2022-08-11T11:17:46.250Z,14.25
2022-08-11T11:20:36.101Z,12.00
2022-08-11T11:23:18.660Z,13.00
2022-08-11T11:26:05.362Z,13.50
2022-08-11T11:28:53.621Z,15.00
2022-08-11T11:31:30.541Z,13.25
2022-08-11T11:34:52.822Z,14.00
2022-08-11T11:37:23.304Z,14.25
2022-08-11T11:39:51.205Z,12.50
2022-08-11T11:42:18.798Z,14.25
2022-08-11T11:44:47.055Z,14.25
2022-08-11T11:47:14.659Z,13.00
2022-08-11T11:49:46.200Z,13.50
2022-08-11T11:52:19.129Z,14.25
2022-08-11T11:54:50.423Z,11.25
2022-08-11T11:57:38.102Z,14.50
2022-08-11T12:00:33.076Z,15.50
2022-08-11T12:03:03.861Z,15.50
2022-08-11T12:05:34.413Z,15.75
2022-08-11T12:08:16.173Z,15.50
2022-08-11T12:11:24.240Z,16.00
2022-08-11T12:13:56.890Z,16.50
2022-08-11T12:16:33.022Z,13.00
2022-08-11T12:19:06.103Z,15.25
2022-08-11T12:21:36.073Z,16.25
2022-08-11T12:24:22.865Z,14.25
2022-08-11T12:27:17.748Z,13.50
2022-08-11T12:29:55.282Z,15.50
2022-08-11T12:32:24.865Z,14.25
2022-08-11T12:34:52.040Z,14.25
2022-08-11T12:37:24.507Z,16.50
2022-08-11T12:40:42.801Z,15.75
2022-08-11T12:43:37.204Z,13.75
2022-08-11T12:46:14.357Z,16.50
2022-08-11T12:49:08.070Z,12.75
2022-08-11T12:52:11.693Z,16.50
2022-08-11T12:54:54.411Z,16.00
2022-08-11T12:57:54.339Z,16.25
2022-08-11T13:00:40.228Z,15.50
2022-08-11T13:03:27.768Z,16.00
2022-08-11T13:06:02.780Z,15.25
2022-08-11T13:08:33.094Z,12.75
2022-08-11T13:11:20.217Z,14.25
2022-08-11T13:13:55.128Z,14.25
2022-08-11T13:16:28.091Z,14.50
2022-08-11T13:18:56.880Z,12.75
2022-08-11T13:21:24.225Z,13.75
2022-08-11T13:24:00.930Z,15.25
2022-08-11T13:26:49.372Z,15.25
2022-08-11T13:29:28.869Z,16.25
2022-08-11T13:32:00.110Z,15.25
2022-08-11T13:34:31.244Z,14.75
2022-08-11T13:37:02.168Z,12.50
2022-08-11T13:39:31.367Z,16.00
2022-08-11T13:42:00.347Z,16.50
2022-08-11T13:44:30.053Z,16.00
2022-08-11T13:47:02.577Z,13.50
2022-08-11T13:49:35.942Z,16.50
2022-08-11T13:52:04.456Z,15.75
2022-08-11T13:54:34.634Z,14.50
2022-08-11T13:57:09.402Z,16.00
2022-08-11T13:59:54.526Z,16.00
2022-08-11T14:02:31.782Z,14.25
2022-08-11T14:05:05.205Z,13.25
2022-08-11T14:07:40.058Z,14.75
2022-08-11T14:10:09.035Z,18.25
2022-08-11T14:12:56.741Z,14.75
2022-08-11T14:15:29.052Z,15.50
2022-08-11T14:18:05.189Z,14.25
2022-08-11T14:20:54.004Z,13.00
2022-08-11T14:23:31.285Z,16.75
2022-08-11T14:26:17.097Z,15.25
2022-08-11T14:28:45.327Z,13.00
2022-08-11T14:31:15.154Z,17.75
2022-08-11T14:33:59.833Z,16.00
2022-08-11T14:36:38.375Z,15.50
2022-08-11T14:39:14.017Z,14.50
2022-08-11T14:42:11.754Z,12.25
2022-08-11T14:45:04.930Z,15.25
2022-08-11T14:47:35.357Z,11.75
2022-08-11T14:50:11.204Z,15.50
2022-08-11T14:52:45.799Z,17.00
2022-08-11T14:55:32.546Z,15.50
2022-08-11T14:58:01.951Z,17.25
2022-08-11T15:00:30.238Z,14.50
2022-08-11T15:03:11.202Z,16.00
2022-08-11T15:05:41.556Z,16.00
2022-08-11T15:08:09.388Z,11.75
2022-08-11T15:10:37.120Z,13.00
2022-08-11T15:13:04.450Z,16.00
2022-08-11T15:15:50.865Z,16.25
2022-08-11T15:18:20.653Z,15.25
2022-08-11T15:21:06.790Z,12.75
2022-08-11T15:23:52.244Z,14.00
2022-08-11T15:26:46.460Z,13.25
2022-08-11T15:29:34.262Z,15.50
2022-08-11T15:32:22.536Z,16.25
2022-08-11T15:35:26.235Z,14.50
2022-08-11T15:38:03.447Z,14.50
2022-08-11T15:40:58.055Z,14.75
2022-08-11T15:44:04.392Z,16.75
2022-08-11T15:46:44.720Z,15.50
2022-08-11T15:49:22.006Z,15.00
2022-08-11T15:52:03.624Z,13.50
2022-08-11T15:54:33.693Z,15.75
2022-08-11T15:57:02.362Z,14.50
2022-08-11T15:59:50.465Z,16.00
2022-08-11T16:02:40.391Z,15.25
2022-08-11T16:05:11.807Z,13.75
2022-08-11T16:07:40.543Z,14.75
2022-08-11T16:10:13.982Z,14.50
2022-08-11T16:13:06.243Z,15.25
2022-08-11T16:15:58.109Z,15.50
2022-08-11T16:18:40.704Z,13.25
2022-08-11T16:21:10.958Z,15.25
2022-08-11T16:23:59.894Z,16.50
2022-08-11T16:27:07.693Z,17.75
2022-08-11T16:29:17.573Z,15.25
2022-08-11T16:32:05.649Z,16.25
2022-08-11T16:34:53.426Z,15.75
2022-08-11T16:37:42.021Z,14.50
2022-08-11T16:40:11.836Z,17.75
2022-08-11T16:43:09.010Z,17.00
2022-08-11T16:45:58.646Z,15.75
2022-08-11T16:48:35.193Z,18.25
2022-08-11T16:51:08.760Z,17.00
2022-08-11T16:53:59.771Z,14.00
2022-08-11T16:56:32.552Z,14.50
2022-08-11T16:59:15.645Z,14.25
2022-08-11T17:02:35.586Z,15.00
2022-08-11T17:05:28.083Z,17.50
2022-08-11T17:08:16.589Z,16.75
2022-08-11T17:11:23.476Z,17.25
2022-08-11T17:13:59.518Z,19.00
2022-08-11T17:16:49.230Z,17.00
2022-08-11T17:20:40.682Z,15.75
2022-08-11T17:22:28.578Z,16.00
2022-08-11T17:24:56.761Z,14.25
2022-08-11T17:27:25.730Z,15.00
2022-08-11T17:29:57.497Z,15.25
2022-08-11T17:32:56.872Z,15.50
2022-08-11T17:35:34.946Z,17.00
2022-08-11T17:38:07.674Z,15.75
2022-08-11T17:40:39.006Z,15.50
2022-08-11T17:43:28.261Z,17.25
2022-08-11T17:46:15.352Z,17.75
2022-08-11T17:48:47.665Z,18.25
2022-08-11T17:51:39.004Z,16.00
2022-08-11T17:54:25.984Z,16.00
2022-08-11T17:57:20.474Z,18.50
2022-08-11T17:59:54.293Z,16.00
2022-08-11T18:02:44.916Z,17.50
2022-08-11T18:05:13.806Z,17.00
2022-08-11T18:08:02.933Z,17.00
2022-08-11T18:10:49.845Z,12.75
2022-08-11T18:13:37.775Z,18.25
2022-08-11T18:16:23.361Z,16.25
2022-08-11T18:19:08.845Z,18.50
2022-08-11T18:22:02.335Z,18.00
2022-08-11T18:25:07.128Z,17.75
2022-08-11T18:27:54.797Z,16.00
2022-08-11T18:30:41.213Z,17.75
2022-08-11T18:36:38.331Z,16.00
2022-08-11T18:39:27.897Z,15.75
2022-08-11T18:42:14.894Z,15.00
2022-08-11T18:45:08.903Z,17.25
2022-08-11T18:47:55.459Z,16.50
2022-08-11T18:50:43.452Z,16.00
2022-08-11T18:53:33.823Z,16.25
2022-08-11T18:56:20.275Z,20.00
2022-08-11T18:59:06.744Z,16.75
2022-08-11T19:01:55.747Z,17.00
2022-08-11T19:04:41.659Z,16.50
2022-08-11T19:07:30.171Z,16.00
2022-08-11T19:10:17.741Z,15.50
2022-08-11T19:13:05.223Z,16.00
2022-08-11T19:15:51.227Z,15.00
2022-08-11T19:18:39.771Z,17.25
2022-08-11T19:21:27.457Z,15.00
2022-08-11T19:24:15.497Z,17.00
2022-08-11T19:27:02.466Z,16.25
2022-08-11T19:30:06.899Z,16.25
2022-08-11T19:32:56.754Z,15.00
2022-08-11T19:35:42.737Z,16.75
2022-08-11T19:38:29.297Z,17.25
2022-08-11T19:41:17.310Z,16.00
2022-08-11T19:44:23.122Z,16.00
2022-08-11T19:47:10.579Z,14.50
2022-08-11T19:49:57.128Z,16.25
2022-08-11T19:52:43.632Z,15.75
2022-08-11T19:55:29.580Z,16.75
2022-08-11T19:58:15.699Z,15.50
2022-08-11T20:01:01.750Z,16.00
2022-08-11T20:03:46.787Z,16.25
2022-08-11T20:06:35.985Z,15.25
2022-08-11T20:09:23.566Z,15.50
2022-08-11T20:12:14.026Z,17.75
2022-08-11T20:15:02.388Z,16.00
2022-08-11T20:17:53.312Z,15.50
2022-08-11T20:20:40.231Z,16.50
2022-08-11T20:23:28.882Z,15.00
2022-08-11T20:26:32.284Z,15.50
2022-08-11T20:29:19.465Z,14.75
2022-08-11T20:32:06.622Z,14.00
2022-08-11T20:34:57.360Z,13.50
2022-08-11T20:37:47.664Z,14.75
2022-08-11T20:40:39.216Z,12.75
2022-08-11T20:44:08.380Z,13.50
2022-08-11T20:46:32.681Z,13.25
2022-08-11T20:49:20.623Z,13.00
2022-08-11T20:52:06.239Z,15.50
2022-08-11T20:54:53.497Z,13.50
2022-08-11T20:58:00.154Z,14.00
2022-08-11T21:00:46.332Z,13.25
2022-08-11T21:03:36.460Z,14.50
2022-08-11T21:06:33.692Z,15.00
2022-08-11T21:09:23.963Z,12.00
2022-08-11T21:12:29.289Z,12.75
2022-08-11T21:15:15.798Z,13.00
2022-08-11T21:18:28.407Z,12.00
2022-08-11T21:21:18.191Z,12.25
2022-08-11T21:24:05.620Z,14.50
2022-08-11T21:26:52.517Z,12.00
2022-08-11T21:29:38.995Z,14.25
2022-08-11T21:32:24.872Z,13.75
2022-08-11T21:35:11.747Z,12.75
2022-08-11T21:37:58.141Z,12.75
2022-08-11T21:40:46.144Z,12.75
2022-08-11T21:43:33.851Z,12.25
2022-08-11T21:46:20.933Z,13.00
2022-08-11T21:49:08.112Z,12.00
2022-08-11T21:51:53.564Z,12.00
2022-08-11T21:54:39.480Z,13.25
2022-08-11T21:57:25.408Z,12.75
2022-08-11T22:00:13.807Z,11.75
2022-08-11T22:03:01.307Z,9.00
2022-08-11T22:05:50.544Z,11.50
2022-08-11T22:08:36.082Z,10.00
2022-08-11T22:11:32.203Z,12.25
2022-08-11T22:14:21.516Z,11.50
2022-08-11T22:17:06.971Z,13.25
2022-08-11T22:19:55.218Z,12.00
2022-08-11T22:22:52.333Z,13.00
2022-08-11T22:25:51.595Z,11.75
2022-08-11T22:28:40.558Z,12.00
2022-08-11T22:31:27.564Z,12.00
2022-08-11T22:34:13.085Z,12.00
2022-08-11T22:36:59.997Z,13.50
2022-08-11T22:40:02.388Z,11.75
2022-08-11T22:42:50.407Z,11.25
2022-08-11T22:45:36.267Z,10.50
2022-08-11T22:48:24.233Z,12.00
2022-08-11T22:51:10.828Z,12.75
2022-08-11T22:53:59.106Z,12.25
2022-08-11T22:56:46.802Z,14.00
2022-08-11T22:59:32.825Z,11.25
2022-08-11T23:02:18.804Z,11.00
2022-08-11T23:05:04.808Z,13.25
2022-08-11T23:07:52.062Z,12.50
2022-08-11T23:10:39.608Z,10.75
2022-08-11T23:13:27.527Z,12.50
2022-08-11T23:16:16.600Z,11.50
2022-08-11T23:19:03.251Z,11.00
2022-08-11T23:21:50.837Z,10.25
2022-08-11T23:24:36.852Z,11.25
2022-08-11T23:27:24.323Z,12.00
2022-08-11T23:30:12.446Z,12.00
2022-08-11T23:32:58.258Z,11.75
2022-08-11T23:35:53.648Z,10.25
2022-08-11T23:38:42.114Z,12.00
2022-08-11T23:41:27.662Z,11.75
2022-08-11T23:44:13.643Z,9.00
2022-08-11T23:46:59.969Z,13.25
2022-08-11T23:49:46.446Z,13.25
2022-08-11T23:52:33.447Z,10.50
2022-08-11T23:55:18.653Z,11.25
2022-08-11T23:58:06.639Z,10.50
